Latest Coastal Weather Observations for Smithton

IDT60701

Issued at 9:02 pm EST Wednesday 17 July 2024 (issued every 10 minutes, with the page automatically refreshed every 10 minutes)

About coastal observations | Map of coastal stations | Coastal observations for TAS | Marine services | Other Formats
Station Details ID: 091292 Name: SMITHTON AERODROME Lat: -40.83 Lon: 145.08 Height: 7.5 m
Data from the previous 72 hours. | See also: Recent months at Smithton
Date/Time
EST
Wind Sea
Height
m
Swell Vis
km
Cloud Weather Temp
°C
Press
MSL
hPa
Rain since
9am
mm
Dir  Spd
kts
Gust
kts
Height
m
Period
s
Dir
17/08:30pm S 8 9 - - - - - - - 5.0 1013.7 0.2
17/08:00pm SSW 10 11 - - - - - - - 5.4 1013.4 0.2
17/07:30pm SSW 9 11 - - - - - - - 5.9 1013.2 0.2
17/07:00pm SSW 8 9 - - - - - - - 7.0 1012.8 0.2
17/06:30pm SW 5 6 - - - - - - - 8.0 1012.6 0.2
17/06:00pm WSW 4 6 - - - - - - - 8.7 1012.2 0.2
17/05:30pm WSW 3 4 - - - - - - - 8.8 1012.0 0.2
17/05:00pm WNW 2 3 - - - - - - - 9.2 1011.7 0.2
17/04:30pm SW 7 8 - - - - - - - 10.0 1011.9 0.0
17/04:00pm NNW 8 11 - - - - - - - 10.4 1011.5 0.0
17/03:30pm N 5 6 - - - - - - - 10.6 1011.6 0.0
17/03:00pm N 4 6 - - - - - - - 10.4 1011.4 0.0
17/02:30pm N 6 7 - - - - - - - 10.5 1011.2 0.0
17/02:00pm NNE 5 7 - - - - - - - 10.2 1011.4 0.0
17/01:30pm NE 6 7 - - - - - - - 10.6 1011.4 0.0
17/01:00pm SE 4 8 - - - - - - - 10.8 1011.5 0.0
17/12:30pm SSW 4 5 - - - - - - - 11.1 1011.8 0.0
17/12:00pm SSW 6 7 - - - - - - - 11.0 1012.1 0.0
17/11:30am SSW 8 9 - - - - - - - 11.0 1012.3 0.0
17/11:00am SSW 7 9 - - - - - - - 10.8 1012.5 0.0
17/10:30am SSW 8 10 - - - - - - - 10.5 1012.6 0.0
17/10:00am SSW 10 12 - - - - - - - 10.5 1012.4 0.0
17/09:30am SSW 9 11 - - - - - - - 10.4 1012.1 0.0
17/09:00am S 7 9 - - - - - - - 9.0 1012.0 0.4
17/08:30am S 7 8 - - - - - - - 8.3 1011.8 0.4
17/08:00am SSW 5 6 - - - - - - - 8.0 1011.6 0.4
17/07:30am CALM 0 3 - - - - - - - 8.5 1011.4 0.4
17/07:00am S 5 7 - - - - - - - 9.0 1011.2 0.4
17/06:30am S 10 12 - - - - - - - 9.1 1010.9 0.4
17/06:00am SSW 10 11 - - - - - - - 9.1 1010.5 0.4
17/05:30am SSW 11 13 - - - - - - - 8.8 1010.3 0.4
17/05:00am SSW 10 12 - - - - - - - 8.8 1010.2 0.4
17/04:30am SSW 11 13 - - - - - - - 8.7 1010.1 0.4
17/04:00am S 10 12 - - - - - - - 8.5 1010.1 0.4
17/03:30am S 11 13 - - - - - - - 8.6 1010.1 0.4
17/03:00am SSW 10 12 - - - - - - - 8.7 1010.2 0.4
17/02:30am S 10 12 - - - - - - - 8.8 1010.2 0.4
17/02:00am S 10 12 - - - - - - - 9.2 1010.1 0.4
17/01:30am SSW 12 13 - - - - - - - 9.5 1010.1 0.4
17/01:00am SSW 11 14 - - - - - - - 9.6 1010.3 0.4
17/12:30am S 7 10 - - - - - - - 10.4 1010.5 0.4
17/12:00am SSW 9 12 - - - - - - - 10.4 1010.6 0.4
 
Date/Time
EST
Wind Sea
Height
m
Swell Vis
km
Cloud Weather Temp
°C
Press
MSL
hPa
Rain since
9am
mm
Dir  Spd
kts
Gust
kts
Height
m
Period
s
Dir
16/11:30pm SSW 10 11 - - - - - - - 10.5 1010.7 0.4
16/11:00pm SSW 10 12 - - - - - - - 10.5 1010.7 0.4
16/10:30pm S 9 10 - - - - - - - 10.9 1010.9 0.4
16/10:00pm SSW 9 11 - - - - - - - 11.2 1010.8 0.4
16/09:30pm SSW 7 9 - - - - - - - 10.7 1010.6 0.2
16/09:00pm SSW 8 9 - - - - - - - 10.9 1010.5 0.2
16/08:30pm S 8 11 - - - - - - - 11.6 1010.5 0.2
16/08:00pm SSW 8 9 - - - - - - - 11.1 1010.4 0.2
16/07:30pm S 9 10 - - - - - - - 11.2 1010.0 0.2
16/07:00pm SSW 8 10 - - - - - - - 11.4 1009.7 0.2
16/06:30pm SSW 9 10 - - - - - - - 11.5 1009.4 0.2
16/06:00pm S 9 12 - - - - - - - 11.9 1009.0 0.2
16/05:30pm S 8 11 - - - - - - - 12.6 1008.7 0.2
16/05:00pm S 7 10 - - - - - - - 13.3 1008.4 0.2
16/04:30pm S 10 14 - - - - - - - 14.2 1008.0 0.2
16/04:00pm S 9 12 - - - - - - - 14.7 1007.7 0.2
16/03:30pm S 11 15 - - - - - - - 16.4 1007.4 0.2
16/03:00pm S 9 12 - - - - - - - 16.6 1007.2 0.2
16/02:30pm S 12 15 - - - - - - - 16.9 1007.1 0.2
16/02:00pm S 10 13 - - - - - - - 17.2 1006.9 0.2
16/01:30pm SSW 8 11 - - - - - - - 17.1 1006.9 0.2
16/01:00pm S 7 9 - - - - - - - 16.7 1007.0 0.2
16/12:30pm S 6 8 - - - - - - - 15.7 1007.2 0.2
16/12:00pm S 7 9 - - - - - - - 14.8 1007.4 0.2
16/11:30am S 8 10 - - - - - - - 13.3 1007.7 0.2
16/11:00am S 9 11 - - - - - - - 12.4 1007.9 0.2
16/10:30am S 9 11 - - - - - - - 10.8 1007.7 0.2
16/10:00am S 9 11 - - - - - - - 10.6 1007.5 0.0
16/09:30am S 9 10 - - - - - - - 9.9 1007.1 0.0
16/09:00am S 8 9 - - - - - - - 9.1 1006.7 0.8
16/08:30am S 8 9 - - - - - - - 8.4 1006.1 0.8
16/08:00am S 7 8 - - - - - - - 7.6 1005.7 0.8
16/07:30am S 9 10 - - - - - - - 7.8 1005.5 0.8
16/07:00am S 9 9 - - - - - - - 7.4 1005.1 0.8
16/06:30am S 9 11 - - - - - - - 7.7 1004.8 0.8
16/06:00am S 8 9 - - - - - - - 7.8 1004.3 0.8
16/05:30am S 8 9 - - - - - - - 7.3 1004.0 0.8
16/05:00am S 8 9 - - - - - - - 6.8 1003.8 0.8
16/04:30am S 9 10 - - - - - - - 7.5 1003.5 0.8
16/04:00am S 10 11 - - - - - - - 7.8 1003.3 0.8
16/03:30am SSW 9 9 - - - - - - - 8.0 1003.2 0.8
16/03:00am S 10 12 - - - - - - - 8.7 1003.0 0.8
16/02:30am SSW 8 10 - - - - - - - 8.4 1002.8 0.8
16/02:00am SSW 9 11 - - - - - - - 8.2 1002.6 0.8
16/01:30am SSW 7 8 - - - - - - - 8.0 1002.4 0.8
16/01:00am SSW 9 10 - - - - - - - 8.8 1002.1 0.8
16/12:30am SSW 8 9 - - - - - - - 9.2 1001.9 0.8
16/12:00am S 10 14 - - - - - - - 10.3 1001.7 0.8
 
Date/Time
EST
Wind Sea
Height
m
Swell Vis
km
Cloud Weather Temp
°C
Press
MSL
hPa
Rain since
9am
mm
Dir  Spd
kts
Gust
kts
Height
m
Period
s
Dir
15/11:30pm S 10 12 - - - - - - - 10.0 1001.5 0.8
15/11:00pm SSW 8 10 - - - - - - - 9.3 1001.2 0.8
15/10:30pm S 9 12 - - - - - - - 10.3 1000.9 0.8
15/10:00pm SSW 11 15 - - - - - - - 11.1 1000.4 0.8
15/09:30pm S 13 18 - - - - - - - 11.5 1000.0 0.8
15/09:00pm SSW 13 16 - - - - - - - 11.7 999.5 0.8
15/08:30pm SSW 15 19 - - - - - - - 12.0 999.1 0.8
15/08:00pm SSW 18 24 - - - - - - - 12.4 998.5 0.8
15/07:30pm SSW 18 25 - - - - - - - 12.7 998.0 0.8
15/07:00pm SSW 19 25 - - - - - - - 12.5 997.3 0.8
15/06:30pm SSW 20 28 - - - - - - - 12.3 996.7 0.8
15/06:23pm SSW 22 32 - - - - - - - 12.2 996.6 0.8
15/06:00pm SSW 23 30 - - - - - - Recent precip. 12.1 996.2 0.8
15/05:33pm SSW 25 35 - - - - - - - 11.7 995.5 0.8
15/05:30pm SSW 25 31 - - - - - - - 11.6 995.3 0.8
15/05:00pm SSW 27 39 - - - - - - - 12.3 995.1 0.0
15/04:30pm SSW 30 41 - - - - - - - 12.4 994.9 0.0
15/04:01pm SSW 27 37 - - - - - - - 12.4 995.0 0.0
15/04:00pm SSW 28 37 - - - - - - - 12.5 995.0 0.0
15/03:30pm SSW 32 42 - - - - - - - 12.4 994.6 0.0
15/03:00pm SSW 31 46 - - - - - - - 12.8 994.5 0.0
15/02:30pm SSW 30 42 - - - - - - - 12.9 994.9 0.0
15/02:00pm SSW 30 41 - - - - - - - 12.7 995.2 0.0
15/01:30pm SSW 30 48 - - - - - - - 12.4 995.7 0.0
15/01:00pm SSW 31 42 - - - - - - - 12.4 995.7 0.0
15/12:30pm SSW 32 43 - - - - - - - 12.3 996.4 0.0
15/12:00pm SSW 30 40 - - - - - - - 12.7 997.0 0.0
15/11:30am SSW 30 42 - - - - - - - 12.2 997.7 0.0
15/11:00am SSW 31 44 - - - - - - - 12.0 998.0 0.0
15/10:32am SSW 28 41 - - - - - - - 11.7 998.3 0.0
15/10:30am SSW 28 37 - - - - - - - 11.6 998.3 0.0
15/10:00am SSW 27 37 - - - - - - - 11.3 998.8 0.0
15/09:30am SSW 24 34 - - - - - - - 10.7 999.3 0.0
15/09:02am SSW 25 37 - - - - - - - 10.3 999.4 0.0
15/09:00am SSW 24 32 - - - - - - - 10.3 999.5 0.6
15/08:30am SSW 25 36 - - - - - - - 10.0 1000.0 0.6
15/08:02am SW 24 34 - - - - - - - 9.9 1000.2 0.6
15/08:00am SW 23 32 - - - - - - - 9.9 1000.2 0.6
15/07:54am SW 24 34 - - - - - - - 9.7 1000.3 0.6
15/07:30am SW 24 31 - - - - - - - 9.6 1000.5 0.6
15/07:00am SW 24 35 - - - - - - - 9.3 1001.0 0.6
15/06:33am SSW 22 32 - - - - - - - 9.2 1001.3 0.6
15/06:30am SW 23 32 - - - - - - - 9.1 1001.3 0.6
15/06:02am SW 23 33 - - - - - - - 9.1 1001.5 0.6
15/06:00am SSW 23 31 - - - - - - Recent precip. 9.0 1001.5 0.6
15/05:44am SSW 23 33 - - - - - - - 8.8 1001.5 0.4
15/05:30am SW 25 34 - - - - - - - 8.9 1001.5 0.2
15/05:27am SSW 24 34 - - - - - - - 8.8 1001.5 0.2
15/05:00am SSW 25 33 - - - - - - - 9.2 1001.7 0.0
15/04:38am SSW 21 32 - - - - - - - 9.1 1002.0 0.0
15/04:30am SSW 21 30 - - - - - - - 9.0 1002.1 0.0
15/04:00am SW 23 35 - - - - - - - 8.8 1002.6 0.0
15/03:30am SSW 24 34 - - - - - - - 8.7 1002.8 0.0
15/03:00am SW 24 34 - - - - - - - 8.6 1003.3 0.0
15/02:30am SSW 24 32 - - - - - - - 8.4 1004.0 0.0
15/02:00am SSW 22 29 - - - - - - - 8.3 1004.7 0.0
15/01:30am SSW 24 32 - - - - - - - 8.4 1005.0 0.0
15/01:04am SSW 21 33 - - - - - - - 8.7 1005.2 0.0
15/01:00am SSW 19 26 - - - - - - - 8.6 1005.3 0.0
15/12:30am SW 19 24 - - - - - - - 8.3 1005.6 0.0
15/12:00am SW 17 22 - - - - - - - 8.1 1006.2 0.0
 
Date/Time
EST
Wind Sea
Height
m
Swell Vis
km
Cloud Weather Temp
°C
Press
MSL
hPa
Rain since
9am
mm
Dir  Spd
kts
Gust
kts
Height
m
Period
s
Dir
14/11:30pm SW 13 19 - - - - - - - 7.5 1006.9 0.0
14/11:00pm SW 15 19 - - - - - - - 7.5 1007.1 0.0
14/10:30pm SW 14 17 - - - - - - - 7.0 1007.5 0.0
14/10:00pm SW 18 24 - - - - - - - 7.4 1007.9 0.0
14/09:30pm SW 15 19 - - - - - - - 6.8 1008.1 0.0

Other formats

Comma delimited format used in spreadsheet applications
http://www.bom.gov.au/fwo/IDT60701/IDT60701.94953.axf

JavaScript Object Notation format (JSON) in row-major order
http://www.bom.gov.au/fwo/IDT60701/IDT60701.94953.json

Data quality

Most of these data are generated automatically and are frequently updated. Quality checks on data are not normally performed. It is possible for incorrect values to appear. Refer to information at About Latest Weather Observations and please check the disclaimer before using these data.